createdAt,value
2018-09-08T00:01:22.304Z,43.8
2018-09-08T00:11:21.642Z,43.8
2018-09-08T00:21:20.775Z,43.7
2018-09-08T00:31:20.012Z,43.7
2018-09-08T00:41:19.247Z,43.6
2018-09-08T00:51:18.484Z,43.6
2018-09-08T01:01:17.714Z,43.6
2018-09-08T01:11:16.948Z,43.6
2018-09-08T01:21:16.182Z,43.5
2018-09-08T01:31:15.416Z,43.4
2018-09-08T01:41:14.651Z,43.4
2018-09-08T01:51:13.885Z,43.4
2018-09-08T02:01:13.133Z,43.4
2018-09-08T02:11:12.352Z,43.3
2018-09-08T02:21:11.586Z,43.3
2018-09-08T02:31:10.827Z,43.3
2018-09-08T02:41:10.055Z,43.3
2018-09-08T02:51:09.288Z,43.2
2018-09-08T03:01:08.528Z,43.2
2018-09-08T03:11:07.752Z,43.1
2018-09-08T03:21:06.989Z,43.1
2018-09-08T03:31:06.221Z,43.1
2018-09-08T03:41:05.451Z,43
2018-09-08T03:51:04.685Z,43
2018-09-08T04:01:03.917Z,42.9
2018-09-08T04:11:03.150Z,42.9
2018-09-08T04:21:02.382Z,42.9
2018-09-08T04:31:01.614Z,42.8
2018-09-08T04:41:00.887Z,42.8
2018-09-08T04:51:00.084Z,40.5
2018-09-08T05:00:59.310Z,37.6
2018-09-08T05:10:58.543Z,37.3
2018-09-08T05:20:57.776Z,36.8
2018-09-08T05:30:57.015Z,36.9
2018-09-08T05:40:56.244Z,36.9
2018-09-08T05:50:55.476Z,36.9
2018-09-08T06:00:54.712Z,37.1
2018-09-08T06:10:53.943Z,37.4
2018-09-08T06:20:53.176Z,37.6
2018-09-08T06:30:52.414Z,38.3
2018-09-08T06:40:51.648Z,38.9
2018-09-08T06:50:50.880Z,39.8
2018-09-08T07:00:50.112Z,40.3
2018-09-08T07:10:49.350Z,40.9
2018-09-08T07:20:48.579Z,41.5
2018-09-08T07:30:47.816Z,42
2018-09-08T07:40:47.048Z,42.4
2018-09-08T07:50:46.283Z,42.9
2018-09-08T08:00:45.570Z,43.4
2018-09-08T08:10:44.758Z,44
2018-09-08T08:20:43.986Z,44.3
2018-09-08T08:30:43.221Z,44.5
2018-09-08T08:40:42.455Z,44.7
2018-09-08T08:50:41.688Z,44
2018-09-08T09:00:40.930Z,43.9
2018-09-08T09:10:40.158Z,42.6
2018-09-08T09:20:39.445Z,43.6
2018-09-08T09:30:38.626Z,43.8
2018-09-08T09:40:37.863Z,44.3
2018-09-08T09:50:37.099Z,43.8
2018-09-08T10:00:36.336Z,44.4
2018-09-08T10:10:35.571Z,44.8
2018-09-08T10:20:34.800Z,44.9
2018-09-08T10:30:34.086Z,45.2
2018-09-08T10:40:33.278Z,45.4
2018-09-08T10:50:32.506Z,45.8
2018-09-08T11:00:31.739Z,46.3
2018-09-08T11:10:30.978Z,46.6
2018-09-08T11:20:30.213Z,45.6
2018-09-08T11:30:29.505Z,46.1
2018-09-08T11:40:28.679Z,46.4
2018-09-08T11:50:27.926Z,46.8
2018-09-08T12:00:27.159Z,46.9
2018-09-08T12:10:26.392Z,47.1
2018-09-08T12:20:25.617Z,47.3
2018-09-08T12:30:24.935Z,47.4
2018-09-08T12:40:24.087Z,47.5
2018-09-08T12:50:23.322Z,47.6
2018-09-08T13:00:22.553Z,47.9
2018-09-08T13:10:21.790Z,48.3
2018-09-08T13:20:21.024Z,48.9
2018-09-08T13:30:20.257Z,49.4
2018-09-08T13:40:19.494Z,49.6
2018-09-08T13:50:18.723Z,49.8
2018-09-08T14:00:17.969Z,49.9
2018-09-08T14:10:17.199Z,50.1
2018-09-08T14:20:16.436Z,49.4
2018-09-08T14:30:15.670Z,45
2018-09-08T14:40:14.914Z,42.3
2018-09-08T14:50:14.146Z,36.7
2018-09-08T15:00:13.380Z,36.1
2018-09-08T15:10:12.617Z,36.6
2018-09-08T15:20:11.854Z,35.9
2018-09-08T15:30:11.091Z,34.5
2018-09-08T15:40:10.336Z,33.3
2018-09-08T15:50:09.565Z,33.2
2018-09-08T16:00:08.807Z,31.5
2018-09-08T16:10:08.041Z,28.8
2018-09-08T16:20:07.284Z,28.3
2018-09-08T16:30:06.517Z,28.4
2018-09-08T16:40:05.760Z,28
2018-09-08T16:50:05.031Z,27.8
2018-09-08T17:00:04.229Z,26.4
2018-09-08T17:10:03.473Z,25.9
2018-09-08T17:20:02.710Z,24.4
2018-09-08T17:30:01.952Z,23.7
2018-09-08T17:40:01.184Z,22.6
2018-09-08T17:50:00.427Z,22.4
2018-09-08T17:59:59.659Z,22.3
2018-09-08T18:09:58.904Z,22.3
2018-09-08T18:19:58.138Z,22.3
2018-09-08T18:29:57.368Z,22.2
2018-09-08T18:39:56.615Z,22.2
2018-09-08T18:49:55.845Z,22.3
2018-09-08T18:59:55.078Z,21.5
2018-09-08T19:09:54.318Z,21.3
2018-09-08T19:19:53.598Z,21.2
2018-09-08T19:29:52.793Z,21.2
2018-09-08T19:39:52.030Z,20.9
2018-09-08T19:49:51.265Z,20.7
2018-09-08T19:59:50.503Z,20.6
2018-09-08T20:09:49.738Z,20.6
2018-09-08T20:19:49.030Z,20.6
2018-09-08T20:29:48.212Z,20.6
2018-09-08T20:39:47.449Z,20.6
2018-09-08T20:49:46.682Z,20.7
2018-09-08T20:59:45.922Z,20.7
2018-09-08T21:09:45.157Z,20.6
2018-09-08T21:19:44.398Z,20.7
2018-09-08T21:29:43.631Z,20.7
2018-09-08T21:39:42.863Z,20.7
2018-09-08T21:49:42.095Z,20.7
2018-09-08T21:59:41.332Z,20.8
2018-09-08T22:09:40.611Z,20.8
2018-09-08T22:19:39.809Z,20.8
2018-09-08T22:29:39.038Z,20.8
2018-09-08T22:39:38.273Z,20.8
2018-09-08T22:49:37.509Z,20.8
2018-09-08T22:59:36.758Z,20.8
2018-09-08T23:09:35.977Z,20.8
2018-09-08T23:19:35.212Z,20.8
2018-09-08T23:29:34.455Z,20.8
2018-09-08T23:39:33.681Z,20.8
2018-09-08T23:49:32.917Z,20.8
2018-09-08T23:59:32.155Z,20.9
